sensor_id;sensor_type;location;lat;lon;timestamp;pressure;altitude;pressure_sealevel;temperature;humidity
57885;BME280;43703;51.060;-0.086;2024-03-08T00:02:22;99874.20;;;5.55;100.00
57885;BME280;43703;51.060;-0.086;2024-03-08T00:04:58;99871.65;;;5.46;100.00
57885;BME280;43703;51.060;-0.086;2024-03-08T00:07:26;99862.56;;;5.53;100.00
57885;BME280;43703;51.060;-0.086;2024-03-08T00:09:46;99863.81;;;5.22;100.00
57885;BME280;43703;51.060;-0.086;2024-03-08T00:12:07;99861.03;;;5.42;100.00
57885;BME280;43703;51.060;-0.086;2024-03-08T00:14:34;99858.21;;;5.54;100.00
57885;BME280;43703;51.060;-0.086;2024-03-08T00:17:04;99854.11;;;4.95;100.00
57885;BME280;43703;51.060;-0.086;2024-03-08T00:19:25;99845.46;;;5.34;100.00
57885;BME280;43703;51.060;-0.086;2024-03-08T00:21:51;99846.06;;;5.36;100.00
57885;BME280;43703;51.060;-0.086;2024-03-08T00:24:13;99842.98;;;5.22;100.00
57885;BME280;43703;51.060;-0.086;2024-03-08T00:26:41;99847.84;;;5.19;100.00
57885;BME280;43703;51.060;-0.086;2024-03-08T00:29:06;99841.79;;;5.35;100.00
57885;BME280;43703;51.060;-0.086;2024-03-08T00:31:31;99845.47;;;5.15;100.00
57885;BME280;43703;51.060;-0.086;2024-03-08T00:33:52;99843.26;;;5.15;100.00
57885;BME280;43703;51.060;-0.086;2024-03-08T00:36:20;99848.03;;;5.19;100.00
57885;BME280;43703;51.060;-0.086;2024-03-08T00:38:43;99844.92;;;5.24;100.00
57885;BME280;43703;51.060;-0.086;2024-03-08T00:41:07;99842.89;;;5.18;100.00
57885;BME280;43703;51.060;-0.086;2024-03-08T00:43:37;99840.00;;;5.32;100.00
57885;BME280;43703;51.060;-0.086;2024-03-08T00:46:01;99836.12;;;5.34;100.00
57885;BME280;43703;51.060;-0.086;2024-03-08T00:48:28;99834.48;;;5.18;100.00
57885;BME280;43703;51.060;-0.086;2024-03-08T00:50:56;99834.32;;;5.19;100.00
57885;BME280;43703;51.060;-0.086;2024-03-08T00:53:26;99825.01;;;5.46;100.00
57885;BME280;43703;51.060;-0.086;2024-03-08T00:55:50;99826.45;;;5.45;100.00
57885;BME280;43703;51.060;-0.086;2024-03-08T00:58:17;99820.35;;;5.29;100.00
57885;BME280;43703;51.060;-0.086;2024-03-08T01:00:42;99818.63;;;5.43;100.00
57885;BME280;43703;51.060;-0.086;2024-03-08T01:03:02;99818.54;;;5.38;100.00
57885;BME280;43703;51.060;-0.086;2024-03-08T01:05:30;99819.52;;;5.33;100.00
57885;BME280;43703;51.060;-0.086;2024-03-08T01:07:54;99814.70;;;5.38;100.00
57885;BME280;43703;51.060;-0.086;2024-03-08T01:10:13;99811.55;;;5.26;100.00
57885;BME280;43703;51.060;-0.086;2024-03-08T01:12:39;99811.33;;;5.48;100.00
57885;BME280;43703;51.060;-0.086;2024-03-08T01:15:05;99805.97;;;5.19;100.00
57885;BME280;43703;51.060;-0.086;2024-03-08T01:17:29;99805.74;;;5.29;100.00
57885;BME280;43703;51.060;-0.086;2024-03-08T01:19:54;99801.49;;;5.36;100.00
57885;BME280;43703;51.060;-0.086;2024-03-08T01:22:19;99800.45;;;4.90;100.00
57885;BME280;43703;51.060;-0.086;2024-03-08T01:24:44;99789.11;;;5.28;100.00
57885;BME280;43703;51.060;-0.086;2024-03-08T01:27:09;99788.56;;;5.17;100.00
57885;BME280;43703;51.060;-0.086;2024-03-08T01:29:35;99786.53;;;5.49;100.00
57885;BME280;43703;51.060;-0.086;2024-03-08T01:32:00;99782.68;;;5.23;100.00
57885;BME280;43703;51.060;-0.086;2024-03-08T01:34:26;99779.00;;;5.39;100.00
57885;BME280;43703;51.060;-0.086;2024-03-08T01:36:51;99774.31;;;5.30;100.00
57885;BME280;43703;51.060;-0.086;2024-03-08T01:39:17;99776.30;;;4.88;100.00
57885;BME280;43703;51.060;-0.086;2024-03-08T01:41:43;99772.52;;;5.16;100.00
57885;BME280;43703;51.060;-0.086;2024-03-08T01:44:09;99771.21;;;5.29;100.00
57885;BME280;43703;51.060;-0.086;2024-03-08T01:46:34;99767.80;;;5.23;100.00
57885;BME280;43703;51.060;-0.086;2024-03-08T01:49:00;99763.93;;;5.11;100.00
57885;BME280;43703;51.060;-0.086;2024-03-08T01:51:24;99763.83;;;5.13;100.00
57885;BME280;43703;51.060;-0.086;2024-03-08T01:53:50;99761.31;;;4.87;100.00
57885;BME280;43703;51.060;-0.086;2024-03-08T01:56:15;99756.60;;;5.07;100.00
57885;BME280;43703;51.060;-0.086;2024-03-08T01:58:41;99755.12;;;5.25;100.00
57885;BME280;43703;51.060;-0.086;2024-03-08T02:01:07;99751.39;;;5.01;100.00
57885;BME280;43703;51.060;-0.086;2024-03-08T02:03:32;99748.28;;;4.86;100.00
57885;BME280;43703;51.060;-0.086;2024-03-08T02:05:57;99740.45;;;4.95;100.00
57885;BME280;43703;51.060;-0.086;2024-03-08T02:08:22;99731.53;;;4.89;100.00
57885;BME280;43703;51.060;-0.086;2024-03-08T02:10:48;99728.39;;;5.05;100.00
57885;BME280;43703;51.060;-0.086;2024-03-08T02:13:14;99718.43;;;4.82;100.00
57885;BME280;43703;51.060;-0.086;2024-03-08T02:18:05;99709.73;;;4.95;100.00
57885;BME280;43703;51.060;-0.086;2024-03-08T02:20:30;99706.43;;;5.12;100.00
57885;BME280;43703;51.060;-0.086;2024-03-08T02:22:55;99699.71;;;4.85;100.00
57885;BME280;43703;51.060;-0.086;2024-03-08T02:25:20;99697.34;;;4.96;100.00
57885;BME280;43703;51.060;-0.086;2024-03-08T02:27:46;99698.89;;;4.88;100.00
57885;BME280;43703;51.060;-0.086;2024-03-08T02:30:12;99695.63;;;4.73;100.00
57885;BME280;43703;51.060;-0.086;2024-03-08T02:32:37;99691.59;;;5.08;100.00
57885;BME280;43703;51.060;-0.086;2024-03-08T02:35:03;99683.99;;;4.89;100.00
57885;BME280;43703;51.060;-0.086;2024-03-08T02:37:28;99676.08;;;5.13;100.00
57885;BME280;43703;51.060;-0.086;2024-03-08T02:39:55;99669.92;;;4.82;100.00
57885;BME280;43703;51.060;-0.086;2024-03-08T02:42:19;99668.96;;;4.67;100.00
57885;BME280;43703;51.060;-0.086;2024-03-08T02:44:45;99662.17;;;4.50;100.00
57885;BME280;43703;51.060;-0.086;2024-03-08T02:47:10;99658.36;;;4.69;100.00
57885;BME280;43703;51.060;-0.086;2024-03-08T02:49:36;99656.99;;;4.82;100.00
57885;BME280;43703;51.060;-0.086;2024-03-08T02:52:01;99656.02;;;4.65;100.00
57885;BME280;43703;51.060;-0.086;2024-03-08T02:54:27;99652.14;;;4.75;100.00
57885;BME280;43703;51.060;-0.086;2024-03-08T02:56:52;99649.72;;;4.81;100.00
57885;BME280;43703;51.060;-0.086;2024-03-08T02:59:18;99647.90;;;4.81;100.00
57885;BME280;43703;51.060;-0.086;2024-03-08T03:01:43;99643.13;;;4.81;100.00
57885;BME280;43703;51.060;-0.086;2024-03-08T03:04:08;99645.27;;;4.84;100.00
57885;BME280;43703;51.060;-0.086;2024-03-08T03:06:33;99637.56;;;4.69;100.00
57885;BME280;43703;51.060;-0.086;2024-03-08T03:08:59;99634.09;;;4.89;100.00
57885;BME280;43703;51.060;-0.086;2024-03-08T03:11:24;99629.04;;;4.98;100.00
57885;BME280;43703;51.060;-0.086;2024-03-08T03:13:49;99628.91;;;4.87;100.00
57885;BME280;43703;51.060;-0.086;2024-03-08T03:16:17;99627.89;;;4.61;100.00
57885;BME280;43703;51.060;-0.086;2024-03-08T03:18:39;99626.55;;;4.13;100.00
57885;BME280;43703;51.060;-0.086;2024-03-08T03:21:05;99619.66;;;4.20;100.00
57885;BME280;43703;51.060;-0.086;2024-03-08T03:23:30;99618.39;;;4.54;100.00
57885;BME280;43703;51.060;-0.086;2024-03-08T03:25:55;99615.33;;;4.36;100.00
57885;BME280;43703;51.060;-0.086;2024-03-08T03:28:20;99613.99;;;4.58;100.00
57885;BME280;43703;51.060;-0.086;2024-03-08T03:30:45;99609.33;;;4.50;100.00
57885;BME280;43703;51.060;-0.086;2024-03-08T03:33:11;99607.83;;;4.40;100.00
57885;BME280;43703;51.060;-0.086;2024-03-08T03:35:36;99607.93;;;4.42;100.00
57885;BME280;43703;51.060;-0.086;2024-03-08T03:38:01;99605.74;;;4.28;100.00
57885;BME280;43703;51.060;-0.086;2024-03-08T03:40:27;99602.49;;;4.62;100.00
57885;BME280;43703;51.060;-0.086;2024-03-08T03:42:52;99597.54;;;4.66;100.00
57885;BME280;43703;51.060;-0.086;2024-03-08T03:45:18;99594.45;;;4.57;100.00
57885;BME280;43703;51.060;-0.086;2024-03-08T03:47:43;99595.13;;;4.47;100.00
57885;BME280;43703;51.060;-0.086;2024-03-08T03:50:09;99593.12;;;4.51;100.00
57885;BME280;43703;51.060;-0.086;2024-03-08T03:52:35;99586.36;;;4.45;100.00
57885;BME280;43703;51.060;-0.086;2024-03-08T03:55:01;99585.31;;;4.62;100.00
57885;BME280;43703;51.060;-0.086;2024-03-08T03:57:26;99584.32;;;4.54;100.00
57885;BME280;43703;51.060;-0.086;2024-03-08T03:59:51;99576.84;;;4.47;100.00
57885;BME280;43703;51.060;-0.086;2024-03-08T04:02:17;99570.86;;;4.60;100.00
57885;BME280;43703;51.060;-0.086;2024-03-08T04:04:42;99568.83;;;4.61;100.00
57885;BME280;43703;51.060;-0.086;2024-03-08T04:07:07;99564.46;;;4.63;100.00
57885;BME280;43703;51.060;-0.086;2024-03-08T04:09:35;99560.14;;;4.11;100.00
57885;BME280;43703;51.060;-0.086;2024-03-08T04:11:58;99557.35;;;4.40;100.00
57885;BME280;43703;51.060;-0.086;2024-03-08T04:14:23;99557.76;;;3.99;100.00
57885;BME280;43703;51.060;-0.086;2024-03-08T04:16:48;99552.51;;;4.37;100.00
57885;BME280;43703;51.060;-0.086;2024-03-08T04:19:13;99554.13;;;4.23;100.00
57885;BME280;43703;51.060;-0.086;2024-03-08T04:21:39;99553.19;;;4.31;100.00
57885;BME280;43703;51.060;-0.086;2024-03-08T04:24:05;99545.30;;;4.28;100.00
57885;BME280;43703;51.060;-0.086;2024-03-08T04:26:30;99545.96;;;3.98;100.00
57885;BME280;43703;51.060;-0.086;2024-03-08T04:28:55;99540.54;;;4.23;100.00
57885;BME280;43703;51.060;-0.086;2024-03-08T04:31:21;99537.58;;;4.25;100.00
57885;BME280;43703;51.060;-0.086;2024-03-08T04:33:46;99543.94;;;4.15;100.00
57885;BME280;43703;51.060;-0.086;2024-03-08T04:36:11;99534.88;;;3.98;100.00
57885;BME280;43703;51.060;-0.086;2024-03-08T04:38:36;99530.06;;;3.96;100.00
57885;BME280;43703;51.060;-0.086;2024-03-08T04:41:02;99529.44;;;3.94;100.00
57885;BME280;43703;51.060;-0.086;2024-03-08T04:43:28;99525.74;;;3.79;100.00
57885;BME280;43703;51.060;-0.086;2024-03-08T04:45:53;99522.11;;;3.72;100.00
57885;BME280;43703;51.060;-0.086;2024-03-08T04:48:18;99519.35;;;3.85;100.00
57885;BME280;43703;51.060;-0.086;2024-03-08T04:50:44;99517.99;;;3.95;100.00
57885;BME280;43703;51.060;-0.086;2024-03-08T04:53:09;99515.31;;;3.63;100.00
57885;BME280;43703;51.060;-0.086;2024-03-08T04:55:35;99514.60;;;3.63;100.00
57885;BME280;43703;51.060;-0.086;2024-03-08T04:58:00;99512.65;;;3.80;100.00
57885;BME280;43703;51.060;-0.086;2024-03-08T05:00:25;99510.69;;;4.03;100.00
57885;BME280;43703;51.060;-0.086;2024-03-08T05:02:50;99507.09;;;4.03;100.00
57885;BME280;43703;51.060;-0.086;2024-03-08T05:05:16;99508.29;;;3.97;100.00
57885;BME280;43703;51.060;-0.086;2024-03-08T05:07:41;99507.57;;;3.85;100.00
57885;BME280;43703;51.060;-0.086;2024-03-08T05:10:07;99505.43;;;3.87;100.00
57885;BME280;43703;51.060;-0.086;2024-03-08T05:12:33;99500.09;;;3.64;100.00
57885;BME280;43703;51.060;-0.086;2024-03-08T05:14:58;99499.07;;;3.83;100.00
57885;BME280;43703;51.060;-0.086;2024-03-08T05:17:23;99492.25;;;3.93;100.00
57885;BME280;43703;51.060;-0.086;2024-03-08T05:19:48;99486.21;;;4.02;100.00
57885;BME280;43703;51.060;-0.086;2024-03-08T05:22:13;99480.09;;;3.60;100.00
57885;BME280;43703;51.060;-0.086;2024-03-08T05:24:39;99474.82;;;3.86;100.00
57885;BME280;43703;51.060;-0.086;2024-03-08T05:27:05;99469.47;;;3.83;100.00
57885;BME280;43703;51.060;-0.086;2024-03-08T05:29:30;99465.62;;;3.52;100.00
57885;BME280;43703;51.060;-0.086;2024-03-08T05:31:56;99468.25;;;3.63;100.00
57885;BME280;43703;51.060;-0.086;2024-03-08T05:34:22;99469.02;;;3.79;100.00
57885;BME280;43703;51.060;-0.086;2024-03-08T05:36:49;99470.03;;;3.86;100.00
57885;BME280;43703;51.060;-0.086;2024-03-08T05:39:12;99468.74;;;3.71;100.00
57885;BME280;43703;51.060;-0.086;2024-03-08T05:41:38;99470.40;;;3.69;100.00
57885;BME280;43703;51.060;-0.086;2024-03-08T05:44:04;99461.50;;;3.57;100.00
57885;BME280;43703;51.060;-0.086;2024-03-08T05:46:29;99457.03;;;3.75;100.00
57885;BME280;43703;51.060;-0.086;2024-03-08T05:48:54;99456.55;;;3.68;100.00
57885;BME280;43703;51.060;-0.086;2024-03-08T05:51:20;99452.92;;;3.84;100.00
57885;BME280;43703;51.060;-0.086;2024-03-08T05:53:45;99446.46;;;3.67;100.00
57885;BME280;43703;51.060;-0.086;2024-03-08T05:56:11;99450.01;;;3.57;100.00
57885;BME280;43703;51.060;-0.086;2024-03-08T05:58:37;99450.36;;;3.53;100.00
57885;BME280;43703;51.060;-0.086;2024-03-08T06:01:02;99444.12;;;3.71;100.00
57885;BME280;43703;51.060;-0.086;2024-03-08T06:03:28;99442.53;;;3.91;100.00
57885;BME280;43703;51.060;-0.086;2024-03-08T06:05:53;99442.70;;;3.74;100.00
57885;BME280;43703;51.060;-0.086;2024-03-08T06:08:19;99441.71;;;4.04;100.00
57885;BME280;43703;51.060;-0.086;2024-03-08T06:10:44;99440.60;;;3.72;100.00
57885;BME280;43703;51.060;-0.086;2024-03-08T06:13:09;99444.83;;;3.65;100.00
57885;BME280;43703;51.060;-0.086;2024-03-08T06:15:35;99440.59;;;3.71;100.00
57885;BME280;43703;51.060;-0.086;2024-03-08T06:18:00;99433.92;;;3.67;100.00
57885;BME280;43703;51.060;-0.086;2024-03-08T06:20:26;99431.40;;;3.62;100.00
57885;BME280;43703;51.060;-0.086;2024-03-08T06:22:52;99431.64;;;4.03;100.00
57885;BME280;43703;51.060;-0.086;2024-03-08T06:25:17;99429.49;;;3.64;100.00
57885;BME280;43703;51.060;-0.086;2024-03-08T06:27:43;99427.13;;;3.34;100.00
57885;BME280;43703;51.060;-0.086;2024-03-08T06:30:11;99422.75;;;3.57;100.00
57885;BME280;43703;51.060;-0.086;2024-03-08T06:32:34;99420.99;;;3.72;100.00
57885;BME280;43703;51.060;-0.086;2024-03-08T06:34:59;99417.72;;;4.01;100.00
57885;BME280;43703;51.060;-0.086;2024-03-08T06:37:24;99427.66;;;3.49;100.00
57885;BME280;43703;51.060;-0.086;2024-03-08T06:39:50;99427.20;;;3.80;100.00
57885;BME280;43703;51.060;-0.086;2024-03-08T06:42:15;99436.76;;;3.89;100.00
57885;BME280;43703;51.060;-0.086;2024-03-08T06:44:40;99437.35;;;3.94;100.00
57885;BME280;43703;51.060;-0.086;2024-03-08T06:47:06;99438.22;;;3.57;100.00
57885;BME280;43703;51.060;-0.086;2024-03-08T06:49:31;99436.75;;;3.88;100.00
57885;BME280;43703;51.060;-0.086;2024-03-08T06:51:56;99432.87;;;3.82;100.00
57885;BME280;43703;51.060;-0.086;2024-03-08T06:54:22;99434.91;;;4.04;100.00
57885;BME280;43703;51.060;-0.086;2024-03-08T06:56:47;99435.67;;;4.39;100.00
57885;BME280;43703;51.060;-0.086;2024-03-08T06:59:13;99437.74;;;4.28;100.00
57885;BME280;43703;51.060;-0.086;2024-03-08T07:01:38;99440.99;;;4.24;100.00
57885;BME280;43703;51.060;-0.086;2024-03-08T07:04:04;99442.89;;;4.39;100.00
57885;BME280;43703;51.060;-0.086;2024-03-08T07:06:29;99444.70;;;4.32;100.00
57885;BME280;43703;51.060;-0.086;2024-03-08T07:08:54;99443.85;;;4.36;100.00
57885;BME280;43703;51.060;-0.086;2024-03-08T07:11:20;99443.49;;;4.30;100.00
57885;BME280;43703;51.060;-0.086;2024-03-08T07:13:45;99441.66;;;4.35;100.00
57885;BME280;43703;51.060;-0.086;2024-03-08T07:16:11;99446.04;;;4.35;100.00
57885;BME280;43703;51.060;-0.086;2024-03-08T07:18:36;99445.86;;;4.53;100.00
57885;BME280;43703;51.060;-0.086;2024-03-08T07:21:02;99443.47;;;4.29;100.00
57885;BME280;43703;51.060;-0.086;2024-03-08T07:23:27;99436.71;;;4.72;100.00
57885;BME280;43703;51.060;-0.086;2024-03-08T07:25:52;99437.86;;;4.60;100.00
57885;BME280;43703;51.060;-0.086;2024-03-08T07:28:18;99442.23;;;4.42;100.00
57885;BME280;43703;51.060;-0.086;2024-03-08T07:30:43;99439.09;;;4.81;100.00
57885;BME280;43703;51.060;-0.086;2024-03-08T07:33:09;99434.58;;;5.01;100.00
57885;BME280;43703;51.060;-0.086;2024-03-08T07:35:35;99432.68;;;4.85;100.00
57885;BME280;43703;51.060;-0.086;2024-03-08T07:38:05;99433.05;;;4.48;100.00
57885;BME280;43703;51.060;-0.086;2024-03-08T07:40:26;99432.65;;;5.05;100.00
57885;BME280;43703;51.060;-0.086;2024-03-08T07:42:51;99431.91;;;4.95;100.00
57885;BME280;43703;51.060;-0.086;2024-03-08T07:45:17;99427.78;;;5.14;100.00
57885;BME280;43703;51.060;-0.086;2024-03-08T07:47:42;99427.99;;;5.42;100.00
57885;BME280;43703;51.060;-0.086;2024-03-08T07:50:08;99420.67;;;5.38;100.00
57885;BME280;43703;51.060;-0.086;2024-03-08T07:52:33;99423.06;;;5.33;100.00
57885;BME280;43703;51.060;-0.086;2024-03-08T07:55:00;99424.06;;;5.66;100.00
57885;BME280;43703;51.060;-0.086;2024-03-08T07:57:24;99413.36;;;5.81;100.00
57885;BME280;43703;51.060;-0.086;2024-03-08T07:59:50;99415.91;;;5.77;100.00
57885;BME280;43703;51.060;-0.086;2024-03-08T08:02:15;99411.42;;;5.85;100.00
57885;BME280;43703;51.060;-0.086;2024-03-08T08:04:40;99408.43;;;5.70;100.00
57885;BME280;43703;51.060;-0.086;2024-03-08T08:07:06;99407.13;;;5.86;100.00
57885;BME280;43703;51.060;-0.086;2024-03-08T08:09:32;99413.74;;;5.84;100.00
57885;BME280;43703;51.060;-0.086;2024-03-08T08:11:57;99408.40;;;5.78;100.00
57885;BME280;43703;51.060;-0.086;2024-03-08T08:14:22;99407.41;;;6.28;100.00
57885;BME280;43703;51.060;-0.086;2024-03-08T08:16:48;99401.45;;;6.60;100.00
57885;BME280;43703;51.060;-0.086;2024-03-08T08:19:14;99402.79;;;6.44;100.00
57885;BME280;43703;51.060;-0.086;2024-03-08T08:21:39;99394.21;;;6.67;100.00
57885;BME280;43703;51.060;-0.086;2024-03-08T08:24:05;99390.71;;;6.80;100.00
57885;BME280;43703;51.060;-0.086;2024-03-08T08:26:30;99390.64;;;6.86;100.00
57885;BME280;43703;51.060;-0.086;2024-03-08T08:28:55;99388.29;;;6.69;100.00
57885;BME280;43703;51.060;-0.086;2024-03-08T08:31:20;99384.04;;;6.86;100.00
57885;BME280;43703;51.060;-0.086;2024-03-08T08:33:46;99379.14;;;6.70;100.00
57885;BME280;43703;51.060;-0.086;2024-03-08T08:36:11;99366.87;;;7.16;100.00
57885;BME280;43703;51.060;-0.086;2024-03-08T08:38:37;99366.95;;;7.77;100.00
57885;BME280;43703;51.060;-0.086;2024-03-08T08:41:02;99363.54;;;7.90;100.00
57885;BME280;43703;51.060;-0.086;2024-03-08T08:43:28;99361.39;;;9.04;100.00
57885;BME280;43703;51.060;-0.086;2024-03-08T08:45:53;99367.03;;;10.30;100.00
57885;BME280;43703;51.060;-0.086;2024-03-08T08:48:19;99354.66;;;10.84;100.00
57885;BME280;43703;51.060;-0.086;2024-03-08T08:50:44;99344.60;;;11.16;100.00
57885;BME280;43703;51.060;-0.086;2024-03-08T08:53:10;99341.55;;;11.94;100.00
57885;BME280;43703;51.060;-0.086;2024-03-08T08:55:35;99340.91;;;12.55;100.00
57885;BME280;43703;51.060;-0.086;2024-03-08T08:58:01;99338.19;;;12.09;100.00
57885;BME280;43703;51.060;-0.086;2024-03-08T09:00:26;99335.56;;;12.05;93.49
57885;BME280;43703;51.060;-0.086;2024-03-08T09:02:52;99331.39;;;12.47;100.00
57885;BME280;43703;51.060;-0.086;2024-03-08T09:05:17;99333.21;;;11.93;93.56
57885;BME280;43703;51.060;-0.086;2024-03-08T09:07:43;99326.54;;;12.33;100.00
57885;BME280;43703;51.060;-0.086;2024-03-08T09:10:08;99323.61;;;12.97;97.28
57885;BME280;43703;51.060;-0.086;2024-03-08T09:12:34;99312.00;;;12.84;100.00
57885;BME280;43703;51.060;-0.086;2024-03-08T09:14:59;99321.54;;;13.26;100.00
57885;BME280;43703;51.060;-0.086;2024-03-08T09:17:24;99310.25;;;13.12;92.88
57885;BME280;43703;51.060;-0.086;2024-03-08T09:19:50;99303.22;;;13.07;84.51
57885;BME280;43703;51.060;-0.086;2024-03-08T09:22:15;99296.54;;;13.46;95.48
57885;BME280;43703;51.060;-0.086;2024-03-08T09:24:41;99292.99;;;13.41;80.45
57885;BME280;43703;51.060;-0.086;2024-03-08T09:27:07;99289.17;;;13.40;77.48
57885;BME280;43703;51.060;-0.086;2024-03-08T09:29:32;99278.77;;;13.51;86.98
57885;BME280;43703;51.060;-0.086;2024-03-08T09:31:58;99275.49;;;13.86;73.71
57885;BME280;43703;51.060;-0.086;2024-03-08T09:34:23;99267.31;;;13.68;62.62
57885;BME280;43703;51.060;-0.086;2024-03-08T09:36:48;99262.76;;;14.00;67.84
57885;BME280;43703;51.060;-0.086;2024-03-08T09:39:14;99255.70;;;13.70;63.44
57885;BME280;43703;51.060;-0.086;2024-03-08T09:41:40;99247.22;;;13.35;58.05
57885;BME280;43703;51.060;-0.086;2024-03-08T09:44:05;99244.50;;;13.12;67.22
57885;BME280;43703;51.060;-0.086;2024-03-08T09:46:30;99235.69;;;13.75;72.54
57885;BME280;43703;51.060;-0.086;2024-03-08T09:48:55;99232.16;;;13.92;56.91
57885;BME280;43703;51.060;-0.086;2024-03-08T09:51:25;99234.66;;;13.94;57.18
57885;BME280;43703;51.060;-0.086;2024-03-08T09:53:51;99222.16;;;13.58;58.30
57885;BME280;43703;51.060;-0.086;2024-03-08T09:56:13;99221.27;;;13.86;59.23
57885;BME280;43703;51.060;-0.086;2024-03-08T09:58:38;99216.94;;;14.36;63.62
57885;BME280;43703;51.060;-0.086;2024-03-08T10:01:03;99213.75;;;15.21;64.68
57885;BME280;43703;51.060;-0.086;2024-03-08T10:03:28;99208.34;;;16.77;61.11
57885;BME280;43703;51.060;-0.086;2024-03-08T10:05:54;99198.33;;;16.44;52.38
57885;BME280;43703;51.060;-0.086;2024-03-08T10:08:19;99195.72;;;16.96;58.68
57885;BME280;43703;51.060;-0.086;2024-03-08T10:10:45;99195.64;;;16.58;53.69
57885;BME280;43703;51.060;-0.086;2024-03-08T10:13:10;99190.41;;;16.12;53.09
57885;BME280;43703;51.060;-0.086;2024-03-08T10:15:36;99181.16;;;15.50;48.57
57885;BME280;43703;51.060;-0.086;2024-03-08T10:18:02;99189.53;;;14.85;57.11
57885;BME280;43703;51.060;-0.086;2024-03-08T10:20:29;99186.99;;;14.34;49.17
57885;BME280;43703;51.060;-0.086;2024-03-08T10:22:54;99186.73;;;14.69;51.10
57885;BME280;43703;51.060;-0.086;2024-03-08T10:25:19;99191.91;;;15.67;55.56
57885;BME280;43703;51.060;-0.086;2024-03-08T10:27:44;99182.49;;;15.61;54.36
57885;BME280;43703;51.060;-0.086;2024-03-08T10:30:12;99187.52;;;16.41;54.76
57885;BME280;43703;51.060;-0.086;2024-03-08T10:32:34;99181.21;;;16.95;49.90
57885;BME280;43703;51.060;-0.086;2024-03-08T10:35:00;99173.34;;;17.18;47.27
57885;BME280;43703;51.060;-0.086;2024-03-08T10:37:26;99172.09;;;16.64;43.92
57885;BME280;43703;51.060;-0.086;2024-03-08T10:40:01;99161.80;;;16.51;42.27
57885;BME280;43703;51.060;-0.086;2024-03-08T10:42:22;99161.99;;;16.50;49.04
57885;BME280;43703;51.060;-0.086;2024-03-08T10:44:50;99158.48;;;16.15;44.79
57885;BME280;43703;51.060;-0.086;2024-03-08T10:47:14;99154.53;;;16.18;47.45
57885;BME280;43703;51.060;-0.086;2024-03-08T10:49:38;99143.33;;;16.46;42.65
57885;BME280;43703;51.060;-0.086;2024-03-08T10:51:58;99144.69;;;15.58;46.48
57885;BME280;43703;51.060;-0.086;2024-03-08T10:54:25;99144.85;;;14.68;43.90
57885;BME280;43703;51.060;-0.086;2024-03-08T10:56:49;99139.53;;;14.59;43.89
57885;BME280;43703;51.060;-0.086;2024-03-08T10:59:15;99131.78;;;13.95;44.94
57885;BME280;43703;51.060;-0.086;2024-03-08T11:01:40;99120.26;;;14.42;51.10
57885;BME280;43703;51.060;-0.086;2024-03-08T11:04:06;99128.47;;;14.09;45.70
57885;BME280;43703;51.060;-0.086;2024-03-08T11:06:42;99125.05;;;14.23;44.64
57885;BME280;43703;51.060;-0.086;2024-03-08T11:08:57;99121.42;;;14.16;47.18
57885;BME280;43703;51.060;-0.086;2024-03-08T11:11:25;99126.28;;;14.59;44.72
57885;BME280;43703;51.060;-0.086;2024-03-08T11:13:47;99119.50;;;14.68;51.63
57885;BME280;43703;51.060;-0.086;2024-03-08T11:18:38;99105.93;;;14.80;47.52
57885;BME280;43703;51.060;-0.086;2024-03-08T11:21:05;99103.62;;;15.63;45.68
57885;BME280;43703;51.060;-0.086;2024-03-08T11:23:30;99101.85;;;15.84;44.64
57885;BME280;43703;51.060;-0.086;2024-03-08T11:25:54;99099.95;;;15.79;44.61
57885;BME280;43703;51.060;-0.086;2024-03-08T11:28:21;99092.53;;;16.22;47.30
57885;BME280;43703;51.060;-0.086;2024-03-08T11:30:46;99084.75;;;17.14;46.50
57885;BME280;43703;51.060;-0.086;2024-03-08T11:33:12;99093.01;;;17.37;43.30
57885;BME280;43703;51.060;-0.086;2024-03-08T11:35:36;99092.64;;;17.11;42.51
57885;BME280;43703;51.060;-0.086;2024-03-08T11:38:02;99089.28;;;16.62;40.72
57885;BME280;43703;51.060;-0.086;2024-03-08T11:40:27;99076.44;;;16.14;44.19
57885;BME280;43703;51.060;-0.086;2024-03-08T11:42:52;99070.52;;;15.76;45.67
57885;BME280;43703;51.060;-0.086;2024-03-08T11:45:18;99069.63;;;14.97;46.02
57885;BME280;43703;51.060;-0.086;2024-03-08T11:47:43;99066.00;;;15.08;46.00
57885;BME280;43703;51.060;-0.086;2024-03-08T11:50:11;99069.99;;;15.00;46.72
57885;BME280;43703;51.060;-0.086;2024-03-08T11:52:35;99055.26;;;15.17;45.06
57885;BME280;43703;51.060;-0.086;2024-03-08T11:55:02;99065.76;;;15.13;49.13
57885;BME280;43703;51.060;-0.086;2024-03-08T11:57:26;99066.23;;;14.74;42.75
57885;BME280;43703;51.060;-0.086;2024-03-08T11:59:52;99065.78;;;15.17;47.02
57885;BME280;43703;51.060;-0.086;2024-03-08T12:02:17;99067.44;;;16.25;47.44
57885;BME280;43703;51.060;-0.086;2024-03-08T12:04:42;99056.37;;;15.70;42.51
57885;BME280;43703;51.060;-0.086;2024-03-08T12:07:10;99052.35;;;15.99;40.80
57885;BME280;43703;51.060;-0.086;2024-03-08T12:09:33;99053.21;;;15.66;41.53
57885;BME280;43703;51.060;-0.086;2024-03-08T12:11:59;99045.46;;;15.93;43.19
57885;BME280;43703;51.060;-0.086;2024-03-08T12:14:24;99050.37;;;15.43;38.29
57885;BME280;43703;51.060;-0.086;2024-03-08T12:16:50;99049.93;;;15.55;44.82
57885;BME280;43703;51.060;-0.086;2024-03-08T12:19:15;99042.36;;;15.19;40.10
57885;BME280;43703;51.060;-0.086;2024-03-08T12:21:42;99035.87;;;14.37;40.14
57885;BME280;43703;51.060;-0.086;2024-03-08T12:24:08;99037.01;;;14.97;44.26
57885;BME280;43703;51.060;-0.086;2024-03-08T12:26:31;99027.09;;;15.13;39.37
57885;BME280;43703;51.060;-0.086;2024-03-08T12:31:22;99021.30;;;16.13;41.06
57885;BME280;43703;51.060;-0.086;2024-03-08T12:33:49;99029.97;;;15.46;43.10
57885;BME280;43703;51.060;-0.086;2024-03-08T12:36:15;99024.31;;;15.51;42.95
57885;BME280;43703;51.060;-0.086;2024-03-08T12:38:39;99019.81;;;14.69;45.76
57885;BME280;43703;51.060;-0.086;2024-03-08T12:41:05;99022.61;;;14.62;45.77
57885;BME280;43703;51.060;-0.086;2024-03-08T12:43:30;99018.14;;;14.27;45.69
57885;BME280;43703;51.060;-0.086;2024-03-08T12:45:56;99016.36;;;13.11;44.91
57885;BME280;43703;51.060;-0.086;2024-03-08T12:48:22;99019.21;;;12.97;44.03